createdAt,value
2018-03-26T00:00:00.731Z,40.70
2018-03-26T00:02:28.898Z,40.77
2018-03-26T00:04:57.089Z,44.50
2018-03-26T00:07:25.262Z,43.13
2018-03-26T00:09:53.425Z,45.20
2018-03-26T00:12:21.615Z,44.20
2018-03-26T00:14:49.802Z,43.60
2018-03-26T00:17:18.769Z,43.60
2018-03-26T00:19:46.948Z,44.30
2018-03-26T00:22:15.122Z,48.27
2018-03-26T00:24:43.290Z,45.80
2018-03-26T00:27:11.479Z,43.50
2018-03-26T00:29:39.692Z,41.73
2018-03-26T00:32:07.899Z,47.37
2018-03-26T00:34:36.082Z,41.97
2018-03-26T00:37:04.261Z,44.90
2018-03-26T00:39:32.437Z,42.07
2018-03-26T00:42:00.644Z,46.90
2018-03-26T00:44:28.850Z,46.47
2018-03-26T00:46:57.027Z,42.80
2018-03-26T00:49:25.232Z,46.27
2018-03-26T00:51:53.410Z,45.27
2018-03-26T00:54:21.595Z,44.80
2018-03-26T00:56:49.773Z,47.30
2018-03-26T00:59:17.940Z,46.53
2018-03-26T01:01:46.921Z,44.90
2018-03-26T01:04:15.089Z,48.67
2018-03-26T01:06:43.271Z,46.57
2018-03-26T01:09:11.433Z,44.57
2018-03-26T01:11:39.605Z,47.30
2018-03-26T01:14:07.786Z,48.37
2018-03-26T01:16:35.971Z,47.47
2018-03-26T01:19:04.141Z,45.33
2018-03-26T01:21:32.319Z,48.73
2018-03-26T01:24:00.488Z,50.10
2018-03-26T01:26:28.674Z,42.70
2018-03-26T01:28:56.846Z,47.70
2018-03-26T01:31:25.015Z,49.53
2018-03-26T01:33:53.206Z,47.60
2018-03-26T01:36:21.381Z,46.77
2018-03-26T01:38:49.575Z,51.23
2018-03-26T01:41:17.746Z,44.53
2018-03-26T01:43:45.910Z,48.40
2018-03-26T01:46:14.077Z,51.57
2018-03-26T01:48:42.257Z,49.67
2018-03-26T01:51:10.419Z,48.60
2018-03-26T01:53:38.582Z,49.50
2018-03-26T01:56:06.799Z,49.10
2018-03-26T01:58:35.005Z,49.40
2018-03-26T02:01:03.174Z,50.97
2018-03-26T02:03:32.105Z,52.37
2018-03-26T02:06:00.270Z,48.97
2018-03-26T02:08:28.475Z,49.80
2018-03-26T02:10:56.672Z,52.60
2018-03-26T02:13:25.667Z,50.57
2018-03-26T02:15:54.620Z,53.37
2018-03-26T02:18:22.789Z,51.87
2018-03-26T02:20:50.960Z,52.37
2018-03-26T02:23:19.144Z,53.50
2018-03-26T02:25:47.314Z,49.60
2018-03-26T02:28:15.513Z,48.33
2018-03-26T02:30:43.678Z,53.20
2018-03-26T02:33:11.844Z,54.30
2018-03-26T02:35:40.019Z,49.77
2018-03-26T02:38:08.196Z,56.67
2018-03-26T02:40:36.382Z,58.90
2018-03-26T02:43:04.580Z,47.77
2018-03-26T02:45:33.535Z,47.40
2018-03-26T02:48:01.706Z,44.77
2018-03-26T02:50:29.904Z,50.03
2018-03-26T02:52:58.078Z,53.07
2018-03-26T02:55:26.265Z,52.23
2018-03-26T02:57:55.233Z,54.60
2018-03-26T03:00:23.404Z,52.90
2018-03-26T03:02:51.604Z,46.83
2018-03-26T03:05:19.811Z,51.00
2018-03-26T03:07:47.988Z,56.30
2018-03-26T03:10:16.164Z,51.63
2018-03-26T03:12:44.334Z,48.90
2018-03-26T03:15:12.519Z,51.10
2018-03-26T03:17:40.696Z,53.70
2018-03-26T03:20:08.856Z,56.03
2018-03-26T03:22:37.062Z,48.80
2018-03-26T03:25:05.238Z,50.63
2018-03-26T03:27:33.410Z,53.73
2018-03-26T03:30:01.589Z,54.93
2018-03-26T03:32:29.776Z,54.20
2018-03-26T03:34:58.014Z,58.70
2018-03-26T03:37:26.208Z,54.40
2018-03-26T03:39:54.379Z,57.27
2018-03-26T03:42:22.538Z,56.10
2018-03-26T03:44:50.739Z,54.87
2018-03-26T03:47:18.998Z,53.00
2018-03-26T03:49:47.169Z,59.80
2018-03-26T03:52:15.350Z,62.23
2018-03-26T03:54:43.553Z,56.40
2018-03-26T03:57:11.750Z,50.37
2018-03-26T03:59:39.941Z,56.77
2018-03-26T04:02:08.903Z,60.57
2018-03-26T04:04:37.082Z,58.10
2018-03-26T04:07:05.259Z,60.70
2018-03-26T04:09:33.457Z,63.30
2018-03-26T04:12:02.408Z,59.80
2018-03-26T04:14:30.593Z,57.03
2018-03-26T04:16:58.764Z,54.10
2018-03-26T04:19:26.930Z,61.33
2018-03-26T04:21:55.101Z,52.20
2018-03-26T04:24:24.035Z,53.53
2018-03-26T04:26:52.999Z,57.90
2018-03-26T04:29:21.202Z,50.07
2018-03-26T04:31:50.151Z,54.93
2018-03-26T04:34:18.341Z,49.90
2018-03-26T04:36:46.720Z,51.90
2018-03-26T04:39:14.903Z,51.07
2018-03-26T04:41:43.974Z,60.33
2018-03-26T04:44:12.194Z,56.47
2018-03-26T04:46:41.136Z,56.40
2018-03-26T04:49:09.318Z,56.00
2018-03-26T04:51:37.531Z,55.63
2018-03-26T04:54:05.693Z,61.03
2018-03-26T04:56:33.858Z,56.03
2018-03-26T04:59:02.049Z,58.90
2018-03-26T05:01:30.227Z,57.00
2018-03-26T05:03:58.411Z,55.47
2018-03-26T05:06:27.353Z,52.97
2018-03-26T05:08:55.565Z,63.00
2018-03-26T05:11:24.587Z,52.17
2018-03-26T05:13:53.537Z,57.77
2018-03-26T05:16:21.719Z,56.50
2018-03-26T05:18:49.897Z,55.60
2018-03-26T05:21:18.114Z,60.20
2018-03-26T05:23:46.341Z,59.40
2018-03-26T05:26:14.528Z,62.57
2018-03-26T05:28:42.725Z,50.60
2018-03-26T05:31:11.682Z,54.73
2018-03-26T05:33:39.894Z,54.00
2018-03-26T05:36:08.075Z,51.07
2018-03-26T05:38:36.256Z,54.07
2018-03-26T05:41:04.432Z,61.70
2018-03-26T05:43:32.603Z,54.67
2018-03-26T05:46:00.795Z,53.77
2018-03-26T05:48:28.991Z,70.43
2018-03-26T05:50:57.171Z,62.10
2018-03-26T05:53:25.371Z,62.20
2018-03-26T05:55:53.549Z,55.70
2018-03-26T05:58:22.531Z,54.67
2018-03-26T06:00:50.705Z,59.83
2018-03-26T06:03:18.886Z,63.90
2018-03-26T06:05:47.087Z,52.80
2018-03-26T06:08:16.026Z,61.73
2018-03-26T06:10:44.204Z,61.23
2018-03-26T06:13:12.402Z,59.40
2018-03-26T06:15:40.571Z,65.93
2018-03-26T06:18:08.734Z,66.43
2018-03-26T06:20:36.946Z,56.57
2018-03-26T06:23:05.891Z,59.97
2018-03-26T06:25:34.114Z,61.17
2018-03-26T06:28:03.066Z,57.23
2018-03-26T06:30:31.254Z,63.73
2018-03-26T06:33:00.231Z,63.93
2018-03-26T06:35:28.422Z,62.83
2018-03-26T06:40:55.070Z,59.67
2018-03-26T06:43:24.022Z,54.60
2018-03-26T06:45:52.216Z,63.03
2018-03-26T06:48:20.412Z,60.53
2018-03-26T06:50:48.620Z,61.10
2018-03-26T06:53:17.559Z,54.63
2018-03-26T06:55:45.731Z,64.70
2018-03-26T06:58:13.924Z,58.30
2018-03-26T07:00:42.137Z,59.57
2018-03-26T07:03:11.095Z,58.20
2018-03-26T07:05:39.278Z,65.00
2018-03-26T07:08:07.463Z,54.90
2018-03-26T07:10:35.639Z,63.37
2018-03-26T07:13:03.809Z,53.50
2018-03-26T07:15:31.989Z,60.77
2018-03-26T07:18:00.185Z,61.23
2018-03-26T07:20:29.122Z,57.03
2018-03-26T07:22:57.324Z,59.63
2018-03-26T07:25:25.517Z,52.93
2018-03-26T07:27:54.456Z,50.03
2018-03-26T07:30:22.641Z,54.90
2018-03-26T07:32:50.829Z,55.10
2018-03-26T07:35:19.788Z,53.77
2018-03-26T07:37:47.982Z,57.57
2018-03-26T07:40:16.167Z,54.97
2018-03-26T07:42:44.377Z,54.50
2018-03-26T07:45:13.318Z,51.63
2018-03-26T07:47:41.479Z,51.73
2018-03-26T07:50:09.647Z,53.77
2018-03-26T07:52:37.834Z,50.47
2018-03-26T07:55:05.994Z,60.00
2018-03-26T07:57:34.168Z,51.40
2018-03-26T08:00:02.397Z,59.57
2018-03-26T08:02:30.610Z,58.47
2018-03-26T08:04:59.563Z,54.73
2018-03-26T08:07:27.738Z,57.20
2018-03-26T08:09:55.924Z,60.00
2018-03-26T08:12:24.112Z,54.87
2018-03-26T08:14:53.071Z,53.73
2018-03-26T08:17:22.211Z,60.53
2018-03-26T08:19:50.356Z,51.40
2018-03-26T08:22:18.538Z,52.03
2018-03-26T08:24:46.721Z,57.67
2018-03-26T08:27:15.664Z,59.17
2018-03-26T08:29:43.847Z,56.60
2018-03-26T08:32:12.010Z,53.50
2018-03-26T08:34:40.191Z,53.10
2018-03-26T08:37:08.365Z,68.13
2018-03-26T08:39:36.533Z,57.13
2018-03-26T08:42:04.750Z,59.20
2018-03-26T08:44:32.938Z,53.20
2018-03-26T08:47:01.890Z,77.43
2018-03-26T08:49:30.071Z,64.33
2018-03-26T08:51:58.261Z,65.10
2018-03-26T08:54:26.442Z,60.93
2018-03-26T08:56:54.618Z,60.97
2018-03-26T08:59:22.817Z,66.43
2018-03-26T09:01:51.754Z,60.10
2018-03-26T09:04:19.963Z,53.07
2018-03-26T09:06:48.145Z,53.67
2018-03-26T09:09:17.098Z,76.23
2018-03-26T09:11:45.276Z,56.90
2018-03-26T09:14:13.454Z,52.40
2018-03-26T09:16:41.631Z,54.40
2018-03-26T09:19:09.798Z,66.80
2018-03-26T09:21:37.971Z,62.03
2018-03-26T09:24:06.142Z,58.93
2018-03-26T09:26:34.319Z,55.70
2018-03-26T09:29:02.510Z,53.03
2018-03-26T09:31:30.695Z,56.23
2018-03-26T09:33:58.862Z,52.73
2018-03-26T09:36:27.035Z,49.70
2018-03-26T09:38:55.199Z,52.80
2018-03-26T09:41:23.390Z,53.90
2018-03-26T09:43:51.582Z,66.77
2018-03-26T09:46:20.580Z,61.53
2018-03-26T09:48:48.723Z,71.17
2018-03-26T09:51:16.897Z,60.20
2018-03-26T09:53:45.086Z,59.50
2018-03-26T09:56:13.264Z,56.40
2018-03-26T09:58:41.453Z,47.67
2018-03-26T10:01:16.088Z,55.23
2018-03-26T10:03:45.038Z,56.27
2018-03-26T10:06:13.230Z,55.73
2018-03-26T10:08:41.407Z,49.87
2018-03-26T10:11:09.589Z,49.50
2018-03-26T10:13:38.541Z,52.40
2018-03-26T10:16:06.711Z,50.87
2018-03-26T10:18:34.883Z,47.77
2018-03-26T10:21:03.088Z,49.60
2018-03-26T10:23:31.273Z,48.30
2018-03-26T10:25:59.446Z,59.33
2018-03-26T10:28:27.628Z,48.20
2018-03-26T10:30:55.804Z,57.93
2018-03-26T10:33:23.976Z,51.13
2018-03-26T10:35:52.154Z,52.00
2018-03-26T10:38:20.360Z,48.47
2018-03-26T10:40:48.531Z,48.33
2018-03-26T10:43:16.714Z,50.80
2018-03-26T10:45:44.896Z,51.17
2018-03-26T10:48:13.077Z,49.60
2018-03-26T10:50:41.251Z,45.67
2018-03-26T10:53:09.465Z,43.60
2018-03-26T10:55:37.646Z,50.40
2018-03-26T10:58:05.819Z,50.33
2018-03-26T11:00:34.055Z,51.37
2018-03-26T11:03:02.954Z,56.13
2018-03-26T11:05:31.138Z,45.53
2018-03-26T11:07:59.321Z,50.17
2018-03-26T11:10:27.535Z,48.10
2018-03-26T11:12:56.479Z,50.73
2018-03-26T11:15:24.647Z,46.53
2018-03-26T11:17:52.834Z,50.23
2018-03-26T11:20:21.012Z,45.30
2018-03-26T11:22:49.187Z,49.17
2018-03-26T11:25:17.363Z,45.93
2018-03-26T11:27:45.537Z,44.67
2018-03-26T11:30:13.710Z,46.60
2018-03-26T11:32:41.909Z,50.17
2018-03-26T11:35:10.118Z,49.30
2018-03-26T11:37:38.294Z,49.27
2018-03-26T11:40:06.471Z,48.20
2018-03-26T11:42:34.643Z,47.10
2018-03-26T11:45:02.842Z,55.20
2018-03-26T11:47:31.014Z,54.83
2018-03-26T11:49:59.185Z,50.13
2018-03-26T11:52:27.363Z,49.50
2018-03-26T11:54:55.556Z,47.20
2018-03-26T11:57:23.744Z,46.80
2018-03-26T11:59:51.943Z,45.97
2018-03-26T12:02:20.886Z,44.03
2018-03-26T12:04:49.089Z,55.53
2018-03-26T12:07:17.280Z,49.23
2018-03-26T12:09:46.218Z,50.20
2018-03-26T12:12:14.410Z,51.47
2018-03-26T12:14:42.606Z,49.33
2018-03-26T12:17:10.783Z,51.93
2018-03-26T12:22:42.843Z,51.87
2018-03-26T12:25:14.944Z,54.57
2018-03-26T12:28:01.678Z,51.03
2018-03-26T12:30:29.855Z,49.23
2018-03-26T12:32:58.028Z,47.13
2018-03-26T12:35:44.225Z,50.80
2018-03-26T12:38:12.423Z,52.33
2018-03-26T12:40:55.153Z,61.90
2018-03-26T12:43:23.337Z,47.47
2018-03-26T12:46:09.304Z,47.10
2018-03-26T12:48:37.479Z,44.73
2018-03-26T12:51:23.537Z,46.87
2018-03-26T12:53:52.480Z,43.93
2018-03-26T12:56:20.651Z,43.83
2018-03-26T12:58:49.778Z,43.87
2018-03-26T13:01:35.756Z,44.13
2018-03-26T13:04:03.930Z,44.37
2018-03-26T13:06:32.126Z,47.80
2018-03-26T13:09:01.082Z,48.53
2018-03-26T13:11:29.262Z,48.10
2018-03-26T13:13:57.468Z,48.30
2018-03-26T13:16:25.653Z,48.47
2018-03-26T13:18:54.596Z,49.20
2018-03-26T13:21:22.767Z,46.47
2018-03-26T13:23:50.943Z,48.93
2018-03-26T13:26:19.144Z,46.23
2018-03-26T13:28:47.309Z,47.73
2018-03-26T13:31:15.485Z,46.87
2018-03-26T13:33:43.709Z,45.03
2018-03-26T13:36:11.869Z,49.87
2018-03-26T13:38:40.820Z,48.90
2018-03-26T13:41:09.001Z,48.53
2018-03-26T13:43:37.171Z,47.17
2018-03-26T13:46:05.444Z,43.43
2018-03-26T13:48:33.652Z,42.37
2018-03-26T13:51:01.838Z,42.30
2018-03-26T13:53:30.789Z,45.47
2018-03-26T13:55:58.995Z,43.57
2018-03-26T13:58:27.167Z,43.13
2018-03-26T14:00:55.347Z,45.40
2018-03-26T14:03:24.289Z,44.67
2018-03-26T14:05:52.583Z,49.37
2018-03-26T14:08:38.545Z,44.40
2018-03-26T14:11:24.622Z,44.80
2018-03-26T14:14:10.583Z,46.53
2018-03-26T14:16:56.471Z,49.67
2018-03-26T14:19:24.654Z,47.93
2018-03-26T14:21:52.831Z,48.10
2018-03-26T14:24:21.786Z,49.43
2018-03-26T14:26:49.970Z,46.10
2018-03-26T14:29:18.161Z,46.37
2018-03-26T14:31:46.327Z,48.47
2018-03-26T14:34:14.507Z,43.77
2018-03-26T14:36:42.693Z,50.20
2018-03-26T14:39:10.887Z,44.17
2018-03-26T14:41:39.837Z,46.07
2018-03-26T14:44:08.050Z,44.40
2018-03-26T14:46:37.011Z,49.37
2018-03-26T14:49:05.203Z,47.37
2018-03-26T14:51:33.406Z,45.23
2018-03-26T14:54:02.376Z,51.87
2018-03-26T14:56:30.562Z,48.57
2018-03-26T14:58:59.534Z,47.47
2018-03-26T15:01:27.730Z,46.27
2018-03-26T15:04:01.151Z,49.03
2018-03-26T15:06:29.366Z,47.73
2018-03-26T15:08:57.578Z,49.73
2018-03-26T15:11:26.830Z,46.80
2018-03-26T15:13:55.007Z,48.63
2018-03-26T15:16:23.188Z,44.23
2018-03-26T15:18:51.372Z,41.67
2018-03-26T15:21:19.542Z,42.73
2018-03-26T15:23:47.742Z,42.23
2018-03-26T15:26:16.702Z,46.70
2018-03-26T15:28:44.888Z,44.00
2018-03-26T15:31:13.088Z,50.13
2018-03-26T15:33:42.070Z,53.40
2018-03-26T15:36:10.256Z,48.90
2018-03-26T15:38:39.212Z,46.00
2018-03-26T15:41:07.433Z,45.80
2018-03-26T15:43:36.401Z,43.40
2018-03-26T15:46:04.590Z,44.70
2018-03-26T15:48:33.541Z,45.80
2018-03-26T15:51:01.740Z,43.03
2018-03-26T15:53:29.913Z,46.33
2018-03-26T15:55:58.142Z,41.27
2018-03-26T15:58:26.318Z,52.10
2018-03-26T16:00:54.498Z,46.23
2018-03-26T16:03:28.134Z,41.27
2018-03-26T16:05:56.326Z,46.40
2018-03-26T16:08:24.512Z,44.20
2018-03-26T16:10:53.462Z,43.40
2018-03-26T16:13:21.634Z,42.77
2018-03-26T16:15:49.858Z,41.90
2018-03-26T16:18:18.830Z,43.83
2018-03-26T16:20:47.049Z,40.57
2018-03-26T16:23:15.254Z,44.47
2018-03-26T16:25:43.519Z,42.03
2018-03-26T16:28:11.694Z,41.60
2018-03-26T16:30:39.865Z,39.03
2018-03-26T16:33:08.034Z,41.67
2018-03-26T16:35:36.213Z,45.70
2018-03-26T16:38:04.408Z,43.93
2018-03-26T16:40:32.587Z,42.73
2018-03-26T16:43:06.610Z,42.43
2018-03-26T16:45:34.799Z,39.30
2018-03-26T16:48:02.976Z,48.30
2018-03-26T16:50:31.178Z,42.93
2018-03-26T16:52:59.378Z,44.03
2018-03-26T16:55:27.553Z,42.53
2018-03-26T16:57:55.721Z,44.57
2018-03-26T17:00:23.938Z,43.60
2018-03-26T17:02:52.125Z,47.43
2018-03-26T17:05:20.298Z,42.30
2018-03-26T17:07:48.480Z,49.30
2018-03-26T17:10:17.453Z,44.10
2018-03-26T17:12:45.635Z,46.10
2018-03-26T17:15:13.805Z,40.77
2018-03-26T17:17:41.996Z,43.03
2018-03-26T17:20:11.104Z,46.80
2018-03-26T17:22:40.095Z,46.53
2018-03-26T17:25:09.886Z,45.63
2018-03-26T17:27:38.072Z,43.57
2018-03-26T17:30:07.035Z,46.30
2018-03-26T17:32:35.237Z,45.53
2018-03-26T17:35:04.200Z,43.10
2018-03-26T17:37:32.365Z,50.03
2018-03-26T17:40:00.550Z,44.40
2018-03-26T17:42:28.719Z,44.77
2018-03-26T17:44:56.924Z,53.00
2018-03-26T17:47:25.122Z,50.20
2018-03-26T17:49:54.083Z,48.53
2018-03-26T17:52:22.279Z,43.60
2018-03-26T17:54:51.232Z,46.60
2018-03-26T17:57:20.188Z,44.13
2018-03-26T17:59:48.371Z,46.53
2018-03-26T18:02:16.751Z,43.87
2018-03-26T18:04:44.991Z,45.83
2018-03-26T18:07:13.963Z,52.23
2018-03-26T18:09:42.151Z,49.63
2018-03-26T18:12:10.339Z,43.27
2018-03-26T18:14:39.511Z,45.80
2018-03-26T18:17:07.689Z,48.47
2018-03-26T18:19:35.855Z,48.70
2018-03-26T18:22:04.076Z,48.93
2018-03-26T18:24:33.011Z,48.00
2018-03-26T18:27:01.182Z,49.90
2018-03-26T18:29:29.394Z,46.40
2018-03-26T18:31:57.562Z,47.30
2018-03-26T18:34:25.760Z,46.60
2018-03-26T18:36:54.699Z,46.30
2018-03-26T18:39:22.894Z,49.23
2018-03-26T18:41:51.060Z,57.57
2018-03-26T18:44:19.238Z,54.63
2018-03-26T18:46:47.418Z,53.13
2018-03-26T18:49:15.600Z,48.83
2018-03-26T18:51:43.796Z,49.73
2018-03-26T18:54:12.732Z,48.90
2018-03-26T18:56:40.926Z,45.53
2018-03-26T18:59:09.103Z,70.77
2018-03-26T19:01:37.289Z,59.93
2018-03-26T19:04:05.511Z,49.10
2018-03-26T19:06:33.687Z,67.00
2018-03-26T19:09:01.877Z,74.47
2018-03-26T19:11:30.091Z,52.43
2018-03-26T19:13:58.293Z,46.60
2018-03-26T19:16:27.294Z,46.50
2018-03-26T19:18:56.259Z,47.07
2018-03-26T19:21:24.473Z,50.10
2018-03-26T19:23:52.668Z,45.70
2018-03-26T19:26:21.792Z,54.50
2018-03-26T19:28:49.960Z,51.67
2018-03-26T19:31:18.163Z,52.83
2018-03-26T19:33:47.126Z,53.60
2018-03-26T19:36:15.299Z,53.60
2018-03-26T19:38:43.504Z,49.43
2018-03-26T19:41:11.709Z,51.17
2018-03-26T19:43:39.955Z,52.27
2018-03-26T19:46:08.130Z,50.50
2018-03-26T19:48:37.084Z,53.57
2018-03-26T19:51:05.256Z,52.47
2018-03-26T19:53:33.444Z,50.77
2018-03-26T19:56:01.620Z,51.77
2018-03-26T19:58:29.827Z,48.20
2018-03-26T20:00:57.987Z,53.47
2018-03-26T20:03:26.192Z,51.87
2018-03-26T20:05:55.135Z,49.20
2018-03-26T20:08:23.327Z,55.00
2018-03-26T20:10:51.499Z,49.00
2018-03-26T20:13:19.687Z,49.47
2018-03-26T20:15:47.894Z,50.87
2018-03-26T20:18:16.203Z,50.23
2018-03-26T20:20:44.479Z,45.13
2018-03-26T20:23:12.749Z,47.40
2018-03-26T20:25:41.755Z,55.20
2018-03-26T20:28:09.938Z,59.57
2018-03-26T20:30:38.123Z,57.57
2018-03-26T20:33:06.335Z,55.13
2018-03-26T20:35:35.362Z,57.83
2018-03-26T20:38:03.575Z,54.53
2018-03-26T20:40:31.852Z,58.53
2018-03-26T20:43:00.041Z,53.00
2018-03-26T20:45:28.989Z,49.93
2018-03-26T20:47:57.177Z,57.50
2018-03-26T20:50:25.400Z,52.13
2018-03-26T20:52:53.579Z,51.67
2018-03-26T20:55:21.780Z,50.67
2018-03-26T20:57:49.978Z,51.33
2018-03-26T21:00:18.148Z,52.70
2018-03-26T21:02:46.332Z,56.70
2018-03-26T21:05:14.545Z,51.13
2018-03-26T21:07:43.478Z,57.20
2018-03-26T21:10:11.641Z,51.77
2018-03-26T21:12:39.951Z,57.27
2018-03-26T21:15:08.122Z,50.00
2018-03-26T21:17:36.303Z,54.07
2018-03-26T21:20:04.489Z,48.90
2018-03-26T21:22:32.702Z,55.27
2018-03-26T21:25:00.911Z,53.67
2018-03-26T21:27:29.086Z,53.63
2018-03-26T21:29:57.250Z,62.23
2018-03-26T21:32:25.437Z,57.33
2018-03-26T21:34:53.609Z,60.47
2018-03-26T21:37:21.791Z,57.00
2018-03-26T21:39:49.965Z,60.20
2018-03-26T21:42:18.175Z,54.07
2018-03-26T21:44:47.112Z,54.20
2018-03-26T21:47:15.283Z,53.77
2018-03-26T21:49:43.446Z,54.40
2018-03-26T21:52:11.612Z,65.70
2018-03-26T21:54:39.789Z,47.27
2018-03-26T21:57:07.974Z,54.00
2018-03-26T21:59:36.136Z,55.20
2018-03-26T22:02:04.317Z,52.53
2018-03-26T22:04:32.536Z,53.37
2018-03-26T22:07:00.695Z,51.90
2018-03-26T22:09:28.884Z,46.80
2018-03-26T22:11:57.029Z,46.40
2018-03-26T22:14:25.197Z,48.37
2018-03-26T22:16:53.337Z,54.33
2018-03-26T22:19:22.269Z,50.97
2018-03-26T22:21:50.397Z,53.00
2018-03-26T22:24:19.302Z,52.80
2018-03-26T22:26:48.219Z,53.60
2018-03-26T22:29:16.360Z,50.53
2018-03-26T22:31:45.263Z,56.40
2018-03-26T22:34:14.167Z,53.27
2018-03-26T22:36:42.327Z,56.80
2018-03-26T22:39:11.261Z,55.27
2018-03-26T22:41:39.433Z,54.97
2018-03-26T22:44:07.609Z,53.93
2018-03-26T22:46:35.782Z,56.87
2018-03-26T22:49:03.967Z,58.70
2018-03-26T22:51:32.138Z,59.87
2018-03-26T22:54:00.316Z,58.00
2018-03-26T22:56:28.464Z,59.97
2018-03-26T22:58:56.622Z,58.10
2018-03-26T23:01:24.779Z,56.07
2018-03-26T23:03:53.715Z,57.73
2018-03-26T23:06:21.880Z,53.50
2018-03-26T23:08:50.074Z,54.60
2018-03-26T23:11:18.271Z,58.93
2018-03-26T23:13:46.464Z,56.70
2018-03-26T23:16:15.408Z,57.40
2018-03-26T23:18:43.587Z,54.23
2018-03-26T23:21:11.775Z,55.90
2018-03-26T23:23:39.945Z,57.17
2018-03-26T23:26:08.118Z,54.57
2018-03-26T23:28:36.323Z,57.57
2018-03-26T23:31:04.489Z,56.10
2018-03-26T23:33:32.700Z,52.80
2018-03-26T23:36:00.865Z,57.40
2018-03-26T23:38:29.819Z,59.70
2018-03-26T23:40:57.983Z,59.47
2018-03-26T23:43:26.154Z,58.97
2018-03-26T23:45:55.078Z,56.70
2018-03-26T23:48:23.277Z,55.90
2018-03-26T23:50:51.461Z,54.00
2018-03-26T23:53:19.626Z,61.60
2018-03-26T23:55:48.566Z,54.83
2018-03-26T23:58:16.743Z,58.40
